Time;durP1;ratioP1;P1;durP2;ratioP2;P2;SDS_P1;SDS_P2;PMS_P1;PMS_P2;Temp;Humidity;BMP_temperature;BMP_pressure;BME280_temperature;BME280_humidity;BME280_pressure;Samples;Min_cycle;Max_cycle;Signal;HPM_P1;HPM_P2
2021/10/03 00:02:16;;;;;;;16.20;7.10;;;;;;;9.22;49.90;100636.30;27247;1217;3026628;-71
2021/10/03 00:04:45;;;;;;;14.40;6.80;;;;;;;9.21;49.67;100630.75;27301;1217;3048386;-70
2021/10/03 00:07:14;;;;;;;16.50;7.20;;;;;;;9.21;49.88;100633.19;27348;1217;3026391;-71
2021/10/03 00:09:43;;;;;;;13.80;7.00;;;;;;;9.16;50.00;100627.95;27316;1217;3067798;-72
2021/10/03 00:12:11;;;;;;;13.20;7.20;;;;;;;9.10;50.33;100630.97;27233;1209;3028336;-70
2021/10/03 00:14:40;;;;;;;14.10;7.30;;;;;;;9.09;50.28;100631.73;27259;1216;3049959;-71
2021/10/03 00:17:09;;;;;;;14.80;6.80;;;;;;;9.07;50.19;100628.45;27225;1217;3026034;-72
2021/10/03 00:19:38;;;;;;;13.00;6.60;;;;;;;9.05;50.12;100628.00;27259;1217;3052959;-69
2021/10/03 00:22:09;;;;;;;15.10;7.00;;;;;;;9.06;49.96;100622.20;27229;1217;3026488;-69
2021/10/03 00:24:39;;;;;;;16.60;6.70;;;;;;;9.03;50.36;100622.30;27230;1217;3026475;-71
2021/10/03 00:27:08;;;;;;;22.70;7.40;;;;;;;9.00;50.43;100623.45;27259;1217;3026518;-70
2021/10/03 00:29:37;;;;;;;20.70;7.20;;;;;;;8.97;50.68;100621.98;27234;1217;3053084;-71
2021/10/03 00:32:06;;;;;;;14.20;7.70;;;;;;;8.92;50.53;100620.44;27205;1217;3028152;-70
2021/10/03 00:34:35;;;;;;;17.80;7.70;;;;;;;8.92;50.56;100619.74;27227;1216;3054946;-69
2021/10/03 00:37:04;;;;;;;17.40;7.50;;;;;;;8.86;50.81;100621.15;27218;1217;3028093;-71
2021/10/03 00:39:34;;;;;;;18.10;7.70;;;;;;;8.83;50.82;100623.17;27230;1217;3051455;-70
2021/10/03 00:42:03;;;;;;;15.50;7.40;;;;;;;8.76;51.09;100621.33;27231;1217;3026337;-69
2021/10/03 00:44:32;;;;;;;20.50;6.90;;;;;;;8.76;50.95;100618.53;27256;1217;3055672;-69
2021/10/03 00:47:02;;;;;;;13.30;7.30;;;;;;;8.77;51.09;100621.11;27189;1218;3027597;-70
2021/10/03 00:49:34;;;;;;;17.40;8.00;;;;;;;8.73;51.24;100624.75;27235;1216;3029057;-70
2021/10/03 00:52:04;;;;;;;13.70;7.80;;;;;;;8.71;51.52;100628.49;27261;1217;3058338;-71
2021/10/03 00:54:33;;;;;;;13.90;7.30;;;;;;;8.72;51.09;100626.70;27295;1217;3026418;-70
2021/10/03 00:57:03;;;;;;;16.80;7.50;;;;;;;8.68;51.30;100628.77;27386;1217;3026342;-71
2021/10/03 00:59:32;;;;;;;15.00;6.90;;;;;;;8.67;51.66;100627.23;27318;1216;3055777;-71
2021/10/03 01:02:02;;;;;;;17.90;7.20;;;;;;;8.64;51.80;100629.42;27218;1216;3026049;-71
2021/10/03 01:04:31;;;;;;;12.70;6.90;;;;;;;8.64;51.62;100629.25;27242;1217;3027990;-72
2021/10/03 01:07:00;;;;;;;15.20;6.70;;;;;;;8.67;51.41;100628.98;27270;1217;3026235;-70
2021/10/03 01:09:29;;;;;;;18.90;7.10;;;;;;;8.71;51.23;100624.83;27278;1217;3049086;-70
2021/10/03 01:11:58;;;;;;;14.10;6.90;;;;;;;8.71;51.29;100631.98;27307;1217;3026498;-69
2021/10/03 01:14:26;;;;;;;19.10;6.80;;;;;;;8.71;51.45;100625.50;27273;1217;3055216;-70
2021/10/03 01:16:56;;;;;;;16.90;6.90;;;;;;;8.67;51.72;100628.27;27243;1217;3026579;-70
2021/10/03 01:19:25;;;;;;;17.90;7.00;;;;;;;8.69;51.68;100629.24;27237;1217;3028030;-71
2021/10/03 01:21:54;;;;;;;14.70;6.40;;;;;;;8.70;51.97;100631.66;27230;1216;3058137;-72
2021/10/03 01:24:24;;;;;;;15.70;7.00;;;;;;;8.69;51.93;100631.52;27235;1216;3026425;-70
2021/10/03 01:26:53;;;;;;;14.90;7.90;;;;;;;8.69;51.91;100629.06;27275;1217;3029043;-70
2021/10/03 01:29:22;;;;;;;14.40;7.00;;;;;;;8.70;51.71;100631.83;27205;1217;3055754;-69
2021/10/03 01:31:50;;;;;;;18.20;7.00;;;;;;;8.72;51.68;100628.29;27266;1216;3026028;-69
2021/10/03 01:34:20;;;;;;;16.80;6.80;;;;;;;8.77;51.30;100630.76;27247;1217;3053067;-71
2021/10/03 01:36:48;;;;;;;14.80;6.30;;;;;;;8.78;51.64;100631.21;27211;1217;3026035;-70
2021/10/03 01:39:17;;;;;;;15.30;5.90;;;;;;;8.79;51.48;100632.40;27244;1217;3051351;-71
2021/10/03 01:41:46;;;;;;;12.20;6.80;;;;;;;8.78;51.57;100634.39;27249;1217;3026179;-71
2021/10/03 01:44:15;;;;;;;18.50;6.60;;;;;;;8.77;51.36;100630.39;27229;1217;3047686;-71
2021/10/03 01:46:44;;;;;;;17.90;6.30;;;;;;;8.76;51.39;100630.75;27225;1217;3027872;-73
2021/10/03 01:49:13;;;;;;;14.30;6.60;;;;;;;8.75;51.79;100631.84;27215;1217;3070308;-70
2021/10/03 01:51:42;;;;;;;13.80;6.70;;;;;;;8.75;51.60;100626.77;27213;1217;3026199;-71
2021/10/03 01:54:12;;;;;;;11.80;6.30;;;;;;;8.75;51.46;100619.79;27241;1216;3050464;-71
2021/10/03 01:56:41;;;;;;;16.10;6.50;;;;;;;8.78;51.55;100623.37;27172;1217;3025802;-73
2021/10/03 01:59:12;;;;;;;13.80;6.90;;;;;;;8.79;51.64;100619.66;27219;1218;3026488;-71
2021/10/03 02:01:43;;;;;;;12.10;6.90;;;;;;;8.81;51.44;100618.71;27250;1217;3026278;-71
2021/10/03 02:04:22;;;;;;;12.40;5.90;;;;;;;8.86;51.76;100616.11;27250;1217;3026938;-70
2021/10/03 02:06:53;;;;;;;19.40;6.50;;;;;;;8.83;52.04;100613.75;27209;1217;3055078;-69
2021/10/03 02:09:24;;;;;;;12.50;6.10;;;;;;;8.79;52.53;100614.91;27255;1217;3026272;-69
2021/10/03 02:11:56;;;;;;;11.90;6.40;;;;;;;8.76;52.46;100617.16;27254;1218;3027720;-71
2021/10/03 02:14:27;;;;;;;13.80;6.60;;;;;;;8.80;51.94;100609.48;27222;1217;3026879;-68
2021/10/03 02:16:57;;;;;;;13.50;7.30;;;;;;;8.80;52.21;100609.52;27240;1217;3027196;-70
2021/10/03 02:19:27;;;;;;;11.90;6.10;;;;;;;8.76;52.53;100607.54;27218;1216;3025775;-70
2021/10/03 02:21:56;;;;;;;12.90;6.00;;;;;;;8.74;52.48;100611.10;27241;1217;3026751;-71
2021/10/03 02:24:25;;;;;;;12.90;5.90;;;;;;;8.71;52.39;100609.27;27223;1218;3026770;-70
2021/10/03 02:26:55;;;;;;;13.90;6.40;;;;;;;8.68;52.45;100611.45;27225;1217;3028565;-69
2021/10/03 02:29:23;;;;;;;15.70;6.50;;;;;;;8.65;52.65;100616.13;27260;1217;3051577;-69
2021/10/03 02:31:54;;;;;;;15.60;6.90;;;;;;;8.63;52.57;100613.55;27212;1217;3028247;-69
2021/10/03 02:34:23;;;;;;;14.90;6.60;;;;;;;8.58;52.85;100614.42;27236;1217;3049028;-69
2021/10/03 02:36:52;;;;;;;9.70;5.80;;;;;;;8.57;53.01;100607.65;27241;1217;3026305;-69
2021/10/03 02:39:21;;;;;;;16.10;6.00;;;;;;;8.57;52.77;100609.94;27278;1217;3070209;-70
2021/10/03 02:41:50;;;;;;;12.80;6.30;;;;;;;8.55;52.86;100605.29;27223;1217;3026371;-70
2021/10/03 02:44:21;;;;;;;11.90;5.80;;;;;;;8.54;52.95;100606.52;27213;1217;3052552;-70
2021/10/03 02:46:51;;;;;;;12.70;6.10;;;;;;;8.52;53.29;100610.98;27235;1218;3026089;-70
2021/10/03 02:49:20;;;;;;;13.60;7.10;;;;;;;8.53;52.95;100608.85;27235;1217;3026452;-71
2021/10/03 02:51:50;;;;;;;11.40;6.50;;;;;;;8.53;53.10;100609.35;27250;1218;3050697;-70
2021/10/03 02:54:20;;;;;;;16.60;6.10;;;;;;;8.56;53.13;100609.25;27202;1217;3025709;-69
2021/10/03 02:56:50;;;;;;;13.20;6.10;;;;;;;8.63;53.00;100610.61;27225;1221;3026289;-70
2021/10/03 02:59:19;;;;;;;15.30;6.00;;;;;;;8.68;52.91;100613.21;27234;1217;3026213;-70
2021/10/03 03:01:48;;;;;;;12.80;6.20;;;;;;;8.74;52.58;100610.59;27216;1218;3070309;-70
2021/10/03 03:04:16;;;;;;;12.60;5.60;;;;;;;8.78;52.61;100614.64;27241;1217;3028537;-69
2021/10/03 03:06:45;;;;;;;14.00;6.20;;;;;;;8.83;52.70;100613.05;27230;1217;3050756;-69
2021/10/03 03:09:14;;;;;;;11.10;6.20;;;;;;;8.82;52.84;100608.04;27192;1217;3029054;-71
2021/10/03 03:11:43;;;;;;;11.00;6.20;;;;;;;8.76;53.06;100607.01;27231;1217;3051379;-70
2021/10/03 03:14:21;;;;;;;11.80;6.80;;;;;;;8.72;52.93;100602.41;27221;1217;3053033;-70
2021/10/03 03:16:51;;;;;;;9.90;5.90;;;;;;;8.72;52.61;100602.05;27245;1217;3027498;-69
2021/10/03 03:19:20;;;;;;;12.60;6.70;;;;;;;8.68;52.96;100607.10;27272;1217;3052156;-68
2021/10/03 03:21:49;;;;;;;13.60;6.50;;;;;;;8.69;53.04;100608.64;27242;1211;3025858;-71
2021/10/03 03:24:19;;;;;;;15.00;7.00;;;;;;;8.68;53.22;100614.29;27223;1216;3050972;-70
2021/10/03 03:26:48;;;;;;;12.60;6.20;;;;;;;8.65;53.25;100612.98;27219;1218;3026235;-70
2021/10/03 03:29:17;;;;;;;10.20;6.30;;;;;;;8.66;53.06;100609.98;27245;1209;3025724;-72
2021/10/03 03:31:46;;;;;;;13.10;6.70;;;;;;;8.64;53.33;100610.75;27234;1216;3048634;-70
2021/10/03 03:34:15;;;;;;;12.80;6.80;;;;;;;8.64;53.57;100612.48;27231;1218;3026665;-70
2021/10/03 03:36:44;;;;;;;14.60;6.90;;;;;;;8.60;53.79;100609.83;27216;1217;3055701;-70
2021/10/03 03:39:14;;;;;;;13.70;6.90;;;;;;;8.54;53.99;100607.92;27201;1217;3026543;-71
2021/10/03 03:41:43;;;;;;;14.60;7.10;;;;;;;8.58;54.03;100612.15;27242;1218;3026073;-70
2021/10/03 03:44:13;;;;;;;20.20;7.80;;;;;;;8.62;54.03;100615.37;27267;1216;3055469;-70
2021/10/03 03:46:42;;;;;;;13.20;6.70;;;;;;;8.58;54.15;100620.20;27225;1217;3026539;-68
2021/10/03 03:49:11;;;;;;;15.00;6.70;;;;;;;8.59;54.01;100628.75;27217;1217;3026521;-71
2021/10/03 03:51:40;;;;;;;15.30;6.60;;;;;;;8.59;53.89;100627.67;27229;1217;3057892;-71
2021/10/03 03:54:09;;;;;;;15.20;6.60;;;;;;;8.59;54.20;100629.95;27209;1217;3026246;-70
2021/10/03 03:56:38;;;;;;;11.90;6.70;;;;;;;8.64;54.02;100628.04;27244;1218;3054464;-69
2021/10/03 03:59:08;;;;;;;16.60;6.00;;;;;;;8.68;53.79;100628.95;27193;1218;3026299;-70
2021/10/03 04:01:37;;;;;;;15.20;6.40;;;;;;;8.71;53.68;100629.70;27270;1209;3026048;-70
2021/10/03 04:04:06;;;;;;;15.50;6.60;;;;;;;8.73;53.90;100628.06;27233;1218;3050019;-68
2021/10/03 04:06:35;;;;;;;11.30;6.30;;;;;;;8.76;53.95;100629.04;27227;1217;3025790;-70
2021/10/03 04:09:06;;;;;;;11.50;6.20;;;;;;;8.77;53.99;100625.13;27241;1218;3053920;-69
2021/10/03 04:11:35;;;;;;;20.20;6.60;;;;;;;8.78;54.08;100632.65;27259;1217;3028333;-72
2021/10/03 04:14:04;;;;;;;14.40;6.30;;;;;;;8.80;53.98;100628.38;27201;1209;3026838;-69
2021/10/03 04:16:33;;;;;;;12.40;6.60;;;;;;;8.87;53.89;100630.90;27223;1218;3050908;-72
2021/10/03 04:19:02;;;;;;;13.10;6.40;;;;;;;8.91;53.69;100628.85;27253;1210;3026876;-70
2021/10/03 04:21:31;;;;;;;13.90;6.40;;;;;;;8.92;53.86;100633.35;27226;1217;3048011;-70
2021/10/03 04:24:00;;;;;;;13.60;6.40;;;;;;;8.93;53.97;100636.11;27222;1217;3026044;-70
2021/10/03 04:26:29;;;;;;;12.80;6.50;;;;;;;8.94;54.09;100641.15;27188;1218;3070376;-71
2021/10/03 04:28:58;;;;;;;13.20;6.70;;;;;;;8.99;53.81;100641.69;27223;1209;3026274;-69
2021/10/03 04:31:27;;;;;;;11.90;6.30;;;;;;;9.03;53.91;100641.01;27234;1218;3049862;-67
2021/10/03 04:33:57;;;;;;;12.30;5.70;;;;;;;9.11;53.48;100638.63;27240;1218;3026069;-69
2021/10/03 04:36:26;;;;;;;14.40;6.90;;;;;;;9.20;53.51;100645.83;27200;1217;3051463;-70
2021/10/03 04:38:55;;;;;;;17.60;6.60;;;;;;;9.29;53.46;100643.92;27222;1218;3026226;-70
2021/10/03 04:41:24;;;;;;;13.30;6.30;;;;;;;9.34;53.27;100645.66;27194;1217;3048599;-69
2021/10/03 04:43:53;;;;;;;14.40;6.30;;;;;;;9.39;53.35;100648.62;27255;1218;3026451;-70
2021/10/03 04:46:24;;;;;;;16.40;6.40;;;;;;;9.41;53.34;100641.74;27219;1219;3026169;-72
2021/10/03 04:48:52;;;;;;;9.60;6.00;;;;;;;9.43;53.19;100640.27;27185;1219;3028776;-72
2021/10/03 04:51:21;;;;;;;12.10;6.10;;;;;;;9.45;53.18;100639.35;27276;1218;3052293;-71
2021/10/03 04:53:50;;;;;;;9.40;5.90;;;;;;;9.46;53.23;100638.77;27238;1219;3025832;-71
2021/10/03 04:56:19;;;;;;;10.30;5.40;;;;;;;9.41;53.29;100637.91;27219;1217;3049853;-71
2021/10/03 04:58:50;;;;;;;13.00;6.10;;;;;;;9.36;53.66;100637.72;27257;1210;3025837;-68
2021/10/03 05:01:19;;;;;;;8.50;5.30;;;;;;;9.31;53.87;100638.77;27278;1218;3026238;-71
2021/10/03 05:03:49;;;;;;;8.70;5.00;;;;;;;9.32;53.81;100636.48;27219;1218;3026617;-69
2021/10/03 05:06:18;;;;;;;8.60;5.10;;;;;;;9.35;53.83;100639.70;27227;1217;3026352;-70
2021/10/03 05:08:47;;;;;;;10.40;5.40;;;;;;;9.37;53.88;100636.82;27232;1217;3026585;-71
2021/10/03 05:11:16;;;;;;;13.90;5.70;;;;;;;9.39;53.77;100636.23;27233;1218;3067752;-69
2021/10/03 05:13:45;;;;;;;10.40;5.00;;;;;;;9.44;53.69;100636.40;27237;1210;3026556;-70
2021/10/03 05:16:14;;;;;;;15.20;5.00;;;;;;;9.53;53.48;100642.88;27218;1219;3050324;-72
2021/10/03 05:18:43;;;;;;;13.50;5.80;;;;;;;9.59;53.29;100647.20;27198;1218;3026203;-70
2021/10/03 05:21:12;;;;;;;9.60;5.70;;;;;;;9.63;53.44;100648.81;27210;1217;3026111;-69
2021/10/03 05:23:41;;;;;;;10.50;5.30;;;;;;;9.67;53.22;100650.73;27209;1217;3050000;-69
2021/10/03 05:26:10;;;;;;;10.40;4.90;;;;;;;9.66;53.54;100653.58;27220;1217;3026837;-69
2021/10/03 05:28:40;;;;;;;9.30;4.80;;;;;;;9.71;53.42;100659.66;27201;1219;3055288;-71
2021/10/03 05:31:10;;;;;;;12.30;5.10;;;;;;;9.75;53.51;100663.38;27222;1217;3026272;-71
2021/10/03 05:33:39;;;;;;;7.00;4.80;;;;;;;9.78;53.43;100664.67;27213;1217;3049516;-70
2021/10/03 05:36:08;;;;;;;7.90;4.40;;;;;;;9.79;53.46;100665.48;27262;1217;3026061;-70
2021/10/03 05:38:38;;;;;;;8.90;5.00;;;;;;;9.86;53.49;100659.30;27233;1218;3058595;-68
2021/10/03 05:41:07;;;;;;;10.40;4.80;;;;;;;9.95;53.26;100660.02;27235;1217;3026135;-70
2021/10/03 05:43:39;;;;;;;8.20;4.70;;;;;;;10.00;53.18;100659.80;27222;1217;3054880;-68
2021/10/03 05:46:08;;;;;;;6.80;4.40;;;;;;;10.07;52.89;100660.56;27235;1219;3025543;-69
2021/10/03 05:48:37;;;;;;;10.50;5.40;;;;;;;10.10;53.03;100666.60;27219;1217;3052135;-69
2021/10/03 05:51:07;;;;;;;11.10;4.50;;;;;;;10.14;52.98;100662.41;27218;1217;3027289;-70
2021/10/03 05:53:36;;;;;;;10.70;4.50;;;;;;;10.18;52.75;100661.20;27200;1217;3025981;-68
2021/10/03 05:56:05;;;;;;;7.00;4.10;;;;;;;10.19;52.98;100662.56;27216;1217;3026464;-70
2021/10/03 05:58:34;;;;;;;11.90;4.60;;;;;;;10.23;52.95;100660.78;27214;1218;3053408;-70
2021/10/03 06:01:03;;;;;;;13.70;4.60;;;;;;;10.29;52.80;100664.95;27258;1218;3028196;-71
2021/10/03 06:03:32;;;;;;;12.00;4.80;;;;;;;10.34;52.69;100664.60;27198;1217;3054327;-71
2021/10/03 06:06:01;;;;;;;8.30;4.20;;;;;;;10.41;52.87;100666.77;27248;1217;3026588;-71
2021/10/03 06:08:30;;;;;;;10.30;4.60;;;;;;;10.53;52.52;100669.27;27230;1218;3046683;-71
2021/10/03 06:10:59;;;;;;;8.00;4.30;;;;;;;10.58;52.58;100668.39;27227;1217;3026794;-70
2021/10/03 06:13:28;;;;;;;11.80;4.70;;;;;;;10.68;52.42;100669.69;27254;1217;3070717;-71
2021/10/03 06:15:58;;;;;;;10.90;4.90;;;;;;;10.76;52.31;100669.18;27244;1209;3026716;-70
2021/10/03 06:18:27;;;;;;;11.30;5.30;;;;;;;10.86;52.05;100670.72;27293;1217;3050443;-68
2021/10/03 06:20:59;;;;;;;8.20;4.10;;;;;;;10.99;51.83;100667.68;27253;1219;3027023;-69
2021/10/03 06:23:28;;;;;;;8.50;4.10;;;;;;;11.10;51.66;100660.70;27253;1209;3025907;-70
2021/10/03 06:25:56;;;;;;;9.80;3.80;;;;;;;11.19;51.31;100656.64;27222;1217;3028867;-71
2021/10/03 06:28:26;;;;;;;7.40;3.70;;;;;;;11.31;51.20;100655.80;27215;1217;3070104;-71
2021/10/03 06:30:54;;;;;;;10.10;3.70;;;;;;;11.38;51.10;100655.64;27226;1217;3026174;-70
2021/10/03 06:33:23;;;;;;;8.60;3.50;;;;;;;11.51;50.81;100654.50;27260;1217;3050650;-67
2021/10/03 06:35:52;;;;;;;13.30;3.90;;;;;;;11.59;50.79;100655.59;27231;1218;3026216;-69
2021/10/03 06:38:21;;;;;;;9.00;3.60;;;;;;;11.65;50.47;100656.86;27244;1217;3054714;-71
2021/10/03 06:40:50;;;;;;;5.80;3.30;;;;;;;11.73;50.27;100659.64;27218;1217;3026785;-70
2021/10/03 06:43:19;;;;;;;9.10;3.00;;;;;;;11.87;49.87;100662.31;27242;1217;3051233;-68
2021/10/03 06:45:48;;;;;;;6.50;2.80;;;;;;;12.01;49.61;100663.13;27233;1217;3026328;-67
2021/10/03 06:48:17;;;;;;;6.80;3.60;;;;;;;12.13;49.53;100659.23;27230;1217;3055631;-68
2021/10/03 06:50:46;;;;;;;7.60;3.10;;;;;;;12.24;49.58;100660.10;27173;1217;3028153;-70
2021/10/03 06:53:16;;;;;;;7.50;3.40;;;;;;;12.35;49.24;100655.49;27207;1219;3026335;-70
2021/10/03 06:55:45;;;;;;;6.60;3.30;;;;;;;12.45;48.85;100653.44;27210;1218;3027697;-72
2021/10/03 06:58:14;;;;;;;9.50;3.60;;;;;;;12.55;48.39;100653.46;27186;1219;3048786;-67
2021/10/03 07:00:45;;;;;;;10.90;3.40;;;;;;;12.65;48.44;100651.96;27229;1218;3026639;-70
2021/10/03 07:03:15;;;;;;;8.20;2.70;;;;;;;12.71;48.42;100649.69;27254;1217;3026413;-69
2021/10/03 07:05:45;;;;;;;4.30;2.80;;;;;;;12.83;48.24;100653.50;27200;1219;3026492;-68
2021/10/03 07:08:14;;;;;;;6.10;2.80;;;;;;;12.84;48.34;100653.23;27268;1219;3026576;-69
2021/10/03 07:10:43;;;;;;;10.80;3.00;;;;;;;12.90;48.21;100648.90;27269;1216;3050731;-69
2021/10/03 07:13:13;;;;;;;11.60;3.20;;;;;;;13.02;48.21;100644.08;27195;1217;3025859;-70
2021/10/03 07:15:42;;;;;;;16.00;3.10;;;;;;;13.13;47.40;100642.25;27282;1217;3025939;-68
2021/10/03 07:18:12;;;;;;;5.00;2.00;;;;;;;13.20;46.84;100643.84;27215;1218;3053905;-71
2021/10/03 07:20:41;;;;;;;8.10;2.50;;;;;;;13.33;46.21;100644.38;27210;1217;3026379;-70
2021/10/03 07:23:11;;;;;;;9.10;2.90;;;;;;;13.47;46.13;100642.05;27232;1217;3027020;-68
2021/10/03 07:25:41;;;;;;;5.30;1.90;;;;;;;13.59;46.30;100640.55;27183;1217;3026234;-71
2021/10/03 07:28:10;;;;;;;7.30;2.40;;;;;;;13.64;45.78;100639.41;27240;1218;3026557;-71
2021/10/03 07:30:39;;;;;;;7.30;2.50;;;;;;;13.70;45.42;100638.93;27230;1218;3047957;-69
2021/10/03 07:33:08;;;;;;;8.40;2.00;;;;;;;13.81;45.14;100637.23;27262;1217;3026133;-69
2021/10/03 07:35:37;;;;;;;7.70;2.50;;;;;;;13.90;43.57;100637.08;27238;1217;3069883;-69
2021/10/03 07:38:06;;;;;;;6.20;2.60;;;;;;;13.99;42.86;100624.98;27233;1217;3028242;-67
2021/10/03 07:40:35;;;;;;;16.30;2.50;;;;;;;14.09;42.87;100625.98;27199;1219;3053207;-67
2021/10/03 07:43:04;;;;;;;10.50;2.20;;;;;;;14.12;41.96;100623.34;27223;1219;3027593;-69
2021/10/03 07:45:35;;;;;;;9.00;2.30;;;;;;;14.18;41.73;100617.91;27256;1217;3052551;-68
2021/10/03 07:48:04;;;;;;;5.30;2.00;;;;;;;14.25;41.74;100617.85;27249;1217;3026807;-70
2021/10/03 07:50:33;;;;;;;6.00;2.30;;;;;;;14.29;41.26;100610.94;27229;1218;3048423;-68
2021/10/03 07:53:02;;;;;;;7.10;2.10;;;;;;;14.37;40.73;100615.58;27251;1209;3026003;-68
2021/10/03 07:55:31;;;;;;;10.60;2.20;;;;;;;14.42;40.66;100611.06;27232;1219;3058051;-68
2021/10/03 07:58:03;;;;;;;8.10;2.30;;;;;;;14.52;40.79;100614.38;27197;1218;3026755;-67
2021/10/03 08:00:33;;;;;;;6.80;2.00;;;;;;;14.60;39.93;100610.20;27202;1218;3026438;-69
2021/10/03 08:03:02;;;;;;;8.60;2.20;;;;;;;14.71;39.98;100608.16;27254;1218;3025772;-69
2021/10/03 08:05:33;;;;;;;7.50;2.00;;;;;;;14.81;39.80;100602.11;27267;1218;3026312;-68
2021/10/03 08:08:06;;;;;;;7.30;2.00;;;;;;;14.77;39.41;100600.38;27213;1217;3050688;-67
2021/10/03 08:10:37;;;;;;;23.20;3.30;;;;;;;14.71;39.12;100598.08;27232;1218;3026500;-69
2021/10/03 08:13:06;;;;;;;6.80;1.90;;;;;;;14.72;37.56;100599.66;27246;1217;3027012;-70
2021/10/03 08:15:41;;;;;;;3.10;1.80;;;;;;;14.77;37.27;100602.66;27229;1219;3047660;-66
2021/10/03 08:18:11;;;;;;;6.70;2.00;;;;;;;14.87;36.89;100603.67;27259;1217;3026898;-69
2021/10/03 08:20:41;;;;;;;9.50;3.00;;;;;;;14.98;36.72;100605.45;27243;1217;3068362;-68
2021/10/03 08:23:10;;;;;;;9.80;3.00;;;;;;;15.03;36.17;100603.07;27300;1218;3028648;-69
2021/10/03 08:25:40;;;;;;;6.80;2.10;;;;;;;15.13;36.23;100604.40;27266;1217;3026039;-72
2021/10/03 08:28:09;;;;;;;5.10;2.10;;;;;;;15.16;36.32;100596.11;27194;1218;3027349;-68
2021/10/03 08:30:39;;;;;;;4.10;2.00;;;;;;;15.22;36.01;100603.48;27240;1217;3048202;-68
2021/10/03 08:33:08;;;;;;;6.10;1.90;;;;;;;15.37;36.27;100600.42;27246;1217;3026904;-69
2021/10/03 08:35:38;;;;;;;7.20;2.00;;;;;;;15.53;35.93;100600.29;27247;1217;3069824;-69
2021/10/03 08:38:07;;;;;;;4.90;1.70;;;;;;;15.69;35.74;100593.26;27218;1217;3028092;-68
2021/10/03 08:40:36;;;;;;;16.80;2.20;;;;;;;15.75;35.10;100594.67;27263;1218;3050237;-69
2021/10/03 08:43:08;;;;;;;7.20;2.50;;;;;;;15.76;34.85;100588.99;27198;1217;3029155;-70
2021/10/03 08:45:44;;;;;;;7.90;1.80;;;;;;;15.79;35.01;100592.14;27276;1218;3054708;-73
2021/10/03 08:48:14;;;;;;;8.00;1.70;;;;;;;15.89;34.65;100598.57;27216;1216;3051263;-70
2021/10/03 08:50:44;;;;;;;10.00;1.80;;;;;;;16.03;34.43;100597.14;27212;1217;3027340;-69
2021/10/03 08:53:14;;;;;;;7.40;1.60;;;;;;;16.17;33.86;100603.45;27217;1217;3026888;-69
2021/10/03 08:55:44;;;;;;;9.20;2.20;;;;;;;16.29;33.87;100600.41;27270;1209;3027720;-69
2021/10/03 08:58:13;;;;;;;13.40;2.70;;;;;;;16.13;34.08;100602.52;27246;1217;3025913;-71
2021/10/03 09:00:49;;;;;;;12.60;2.30;;;;;;;16.03;34.37;100599.27;27217;1217;3028197;-67
2021/10/03 09:03:18;;;;;;;11.60;2.60;;;;;;;16.00;34.44;100597.73;27250;1217;3052038;-66
2021/10/03 09:05:50;;;;;;;5.30;2.00;;;;;;;16.05;35.24;100596.30;27207;1216;3025932;-70
2021/10/03 09:08:27;;;;;;;5.50;2.10;;;;;;;16.05;35.67;100600.55;27257;1217;3057130;-69
2021/10/03 09:11:07;;;;;;;7.40;2.10;;;;;;;15.97;35.88;100595.92;27208;1219;3048370;-71
2021/10/03 09:13:36;;;;;;;10.20;2.70;;;;;;;15.90;35.32;100595.88;27231;1217;3053955;-70
2021/10/03 09:16:33;;;;;;;5.90;2.20;;;;;;;15.80;35.10;100594.18;27235;1217;3051409;-70
2021/10/03 09:19:12;;;;;;;6.30;1.90;;;;;;;15.73;34.64;100595.33;27230;1219;3071564;-68
2021/10/03 09:21:43;;;;;;;5.40;1.90;;;;;;;15.80;34.24;100597.04;27218;1217;3048631;-70
2021/10/03 09:24:22;;;;;;;7.10;2.20;;;;;;;15.97;34.10;100593.50;27252;1217;3026191;-70
2021/10/03 09:27:00;;;;;;;11.30;2.50;;;;;;;16.19;33.31;100592.38;27224;1217;3051135;-70
2021/10/03 09:29:32;;;;;;;9.40;2.20;;;;;;;16.33;33.32;100592.72;27247;1218;3058038;-71
2021/10/03 09:32:14;;;;;;;9.90;2.30;;;;;;;16.39;33.13;100589.99;27275;1218;3028187;-71
2021/10/03 09:34:49;;;;;;;7.50;2.50;;;;;;;16.44;33.28;100588.42;27298;1218;3055651;-71
2021/10/03 09:37:26;;;;;;;10.50;2.20;;;;;;;16.52;33.14;100585.95;27797;1216;3050557;-71
2021/10/03 09:40:22;;;;;;;4.60;2.00;;;;;;;16.62;33.11;100584.90;27188;1218;3068553;-70
2021/10/03 09:42:52;;;;;;;4.60;2.20;;;;;;;16.70;32.93;100578.91;27207;1218;3048452;-70
2021/10/03 09:45:22;;;;;;;7.20;2.30;;;;;;;16.73;32.85;100573.70;27269;1218;3027766;-68
2021/10/03 09:48:17;;;;;;;6.00;2.20;;;;;;;16.78;31.70;100568.63;27223;1210;3026059;-69
2021/10/03 09:50:47;;;;;;;8.40;3.40;;;;;;;16.93;31.75;100561.39;27220;1219;3058613;-70
2021/10/03 09:53:15;;;;;;;10.10;3.00;;;;;;;17.07;31.60;100567.16;27218;1217;3027374;-68
2021/10/03 09:55:45;;;;;;;9.50;3.40;;;;;;;17.23;31.43;100563.88;27248;1218;3054607;-70
2021/10/03 09:58:16;;;;;;;3.70;1.80;;;;;;;17.30;30.88;100566.41;27235;1218;3028172;-69
2021/10/03 10:00:45;;;;;;;10.50;2.40;;;;;;;17.26;30.74;100557.30;27284;1218;3051221;-68
2021/10/03 10:03:14;;;;;;;6.70;1.90;;;;;;;17.22;30.56;100558.50;27254;1217;3026231;-69
2021/10/03 10:05:43;;;;;;;7.90;2.10;;;;;;;17.32;30.48;100557.46;27212;1217;3047852;-70
2021/10/03 10:08:12;;;;;;;7.10;2.10;;;;;;;17.36;30.73;100553.77;27221;1217;3027621;-70
2021/10/03 10:10:41;;;;;;;6.10;2.00;;;;;;;17.44;31.18;100554.98;27225;1217;3068057;-72
2021/10/03 10:13:13;;;;;;;9.50;3.00;;;;;;;17.52;31.30;100553.70;27258;1217;3026222;-69
2021/10/03 10:15:42;;;;;;;5.20;2.50;;;;;;;17.56;30.19;100553.95;27273;1216;3051258;-70
2021/10/03 10:18:25;;;;;;;6.70;2.60;;;;;;;17.59;30.21;100554.13;27212;1210;3025901;-72
2021/10/03 10:20:54;;;;;;;11.40;2.50;;;;;;;17.68;30.21;100553.27;27260;1217;3052784;-68
2021/10/03 10:23:27;;;;;;;8.40;2.80;;;;;;;17.74;30.64;100555.30;27205;1217;3026417;-68
2021/10/03 10:25:58;;;;;;;9.10;2.70;;;;;;;17.76;30.77;100553.39;27235;1218;3052650;-69
2021/10/03 10:28:27;;;;;;;7.20;2.40;;;;;;;17.85;30.55;100546.70;27198;1218;3026441;-68
2021/10/03 10:31:09;;;;;;;10.50;3.50;;;;;;;17.92;30.97;100545.13;27272;1217;3025859;-71
2021/10/03 10:33:50;;;;;;;9.20;2.50;;;;;;;18.05;30.81;100545.27;27239;1209;3052273;-70
2021/10/03 10:36:56;;;;;;;5.10;2.40;;;;;;;18.11;30.46;100542.33;27239;1218;3055093;-69
2021/10/03 10:39:26;;;;;;;6.90;2.70;;;;;;;18.22;29.93;100545.95;27211;1219;3053358;-71
2021/10/03 10:41:57;;;;;;;7.80;2.40;;;;;;;18.37;29.70;100543.89;27237;1218;3025928;-69
2021/10/03 10:44:28;;;;;;;10.20;2.90;;;;;;;18.38;29.87;100544.53;27244;1217;3052463;-69
2021/10/03 10:46:59;;;;;;;5.30;2.40;;;;;;;18.48;29.49;100541.48;27237;1217;3026190;-70
2021/10/03 10:49:35;;;;;;;9.60;2.50;;;;;;;18.62;29.17;100539.17;27280;1218;3026271;-70
2021/10/03 10:52:20;;;;;;;4.50;2.20;;;;;;;18.70;28.92;100542.26;27252;1217;3052040;-69
2021/10/03 10:55:02;;;;;;;7.70;2.80;;;;;;;18.93;28.61;100541.72;27285;1209;3051301;-70
2021/10/03 10:57:51;;;;;;;6.10;2.60;;;;;;;19.05;28.65;100541.52;27218;1217;3050818;-70
2021/10/03 11:00:30;;;;;;;7.50;2.80;;;;;;;18.83;28.79;100545.30;27209;1219;3056075;-69
2021/10/03 11:03:03;;;;;;;10.10;2.60;;;;;;;18.74;29.06;100541.10;27220;1219;3051981;-71
2021/10/03 11:05:43;;;;;;;7.80;2.30;;;;;;;18.96;28.95;100541.86;27229;1219;3026264;-72
2021/10/03 11:08:20;;;;;;;11.70;2.90;;;;;;;19.25;28.40;100538.14;27214;1219;3053329;-70
2021/10/03 11:11:01;;;;;;;18.70;3.00;;;;;;;19.10;28.35;100532.41;27169;1219;3068504;-70
2021/10/03 11:13:46;;;;;;;8.90;2.50;;;;;;;18.98;28.80;100537.13;27247;1219;3048970;-69
2021/10/03 11:16:21;;;;;;;11.30;2.70;;;;;;;18.99;28.53;100534.72;27243;1219;3051488;-73
2021/10/03 11:19:16;;;;;;;9.30;2.30;;;;;;;18.95;28.75;100533.08;27243;1219;3054541;-70
2021/10/03 11:21:49;;;;;;;8.70;2.50;;;;;;;18.90;28.64;100532.54;27232;1219;3058201;-74
2021/10/03 11:24:22;;;;;;;5.00;2.60;;;;;;;18.95;28.54;100536.27;27226;1219;3026381;-69
2021/10/03 11:27:00;;;;;;;5.20;2.30;;;;;;;19.16;28.52;100530.86;27188;1219;3026076;-70